Durham, NC

7:32 PM EDT on September 19, 2014 (GMT -0400)
Raleigh-Durham International | Change Station
CLOSE
Current Station
Airport
Location: Raleigh-Durham Airport,
Elevation: 436 ft
Nearby Weather Stations

Elev 436 ft 35.89 °N, 78.78 °W | Updated 41 minutes ago

Mostly Cloudy
Mostly Cloudy
72 °F
Feels Like 72 °F
N
6
Wind Variable Wind from ENE

Today
High -- | Low -- °F
--% Chance of Precip.
Yesterday
High -- | Low -- °F
Precip. -- in
7:01 AM 7:16 PM
Waning Crescent, 16% visible
Pressure 30.19 in
Visibility 10.0 miles
Clouds Scattered Clouds 7500 ft
Scattered Clouds 15000 ft
Dew Point 61 °F
Humidity 68%
Rainfall 0.00 in
Snow Depth Not available.
UV 0 out of 12
Pollen 5.90 out of 12
Ozone Good
PM2.5 Good
Flu Activity Not available.
METAR KRDU 192251Z 06005KT 10SM SCT075 SCT150 22/16 A3020 RMK AO2 SLP222 T02220161

More Conditions Fewer Conditions

Pressure 30.19 in
Visibility 10.0 miles
Clouds Scattered Clouds 7500 ft
Scattered Clouds 15000 ft
Dew Point 61 °F
Humidity 68%
Rainfall 0.00 in
Snow Depth Not available.
UV 0 out of 12
Pollen 5.90 out of 12
Ozone Good
PM2.5 Good
Flu Activity Not available.
METAR KRDU 192251Z 06005KT 10SM SCT075 SCT150 22/16 A3020 RMK AO2 SLP222 T02220161

More Conditions Fewer Conditions

10-Day Weather Forecast

Almanac

Astronomy

Sep. 19, 2014 Rise Set
Actual Time 7:01 AM EDT 7:16 PM EDT
Civil Twilight 6:35 AM EDT 7:42 PM EDT
Nautical Twilight 6:05 AM EDT 8:12 PM EDT
Astronomical Twilight 5:35 AM EDT 8:42 PM EDT
Moon 2:51 AM EDT 4:39 PM EDT
Length of Visible Light 13h 06m
Length of Day
12h 15m
Tomorrow will be 2m 15s shorter.
Waning Crescent, 16% of the Moon is Illuminated
Today
Waning Crescent
Sep 24
New
Oct 1
First Quarter
Oct 8
Full
Oct 15
Last Quarter

Today's Extremes

State Highs State Lows

Community

WunderPhotos

Upload Photos

1,754,724 photos uploaded!

Nearby

Air Quality

  Air Quality AQ Index Pollutant
Yesterday Good
OZONE
Yesterday Good
PM2.5
Current Good
OZONE
Current Good
PM2.5
Friday Good
PM2.5
Friday Good
OZONE
Saturday Good
OZONE
Saturday Good
PM2.5
Sunday Good
PM2.5
Sunday Good
OZONE
Monday Good
PM2.5
Monday Good
OZONE

Snow Depth

Station Depth Elevation
No new snow has been reported.

Earthquake Activity

City Distance Mag. Time & Date
No recent earthquake activity has been reported nearby.
Minimum magnitude displayed is 2.5.

Coastal Water Temperatures

Place Temperature
No Stations Reporting

Nearby Weather Stations